createdAt,value
2022-11-16T00:00:20.862Z,78.50
2022-11-16T00:02:52.319Z,78.60
2022-11-16T00:05:27.975Z,78.70
2022-11-16T00:07:56.683Z,78.80
2022-11-16T00:10:25.557Z,78.70
2022-11-16T00:12:53.878Z,78.80
2022-11-16T00:15:22.441Z,78.80
2022-11-16T00:17:50.564Z,78.80
2022-11-16T00:20:19.202Z,78.70
2022-11-16T00:22:48.655Z,78.60
2022-11-16T00:25:16.928Z,78.70
2022-11-16T00:27:44.979Z,78.60
2022-11-16T00:30:14.325Z,78.50
2022-11-16T00:32:42.393Z,78.60
2022-11-16T00:35:10.786Z,78.40
2022-11-16T00:37:38.852Z,78.40
2022-11-16T00:40:10.544Z,78.50
2022-11-16T00:42:38.615Z,78.50
2022-11-16T00:45:07.431Z,78.40
2022-11-16T00:47:36.016Z,78.50
2022-11-16T00:50:04.290Z,78.50
2022-11-16T00:52:32.423Z,78.50
2022-11-16T00:55:00.529Z,78.50
2022-11-16T00:57:29.987Z,78.40
2022-11-16T00:59:58.548Z,78.30
2022-11-16T01:02:27.913Z,78.30
2022-11-16T01:04:56.497Z,78.30
2022-11-16T01:07:25.141Z,78.30
2022-11-16T01:09:53.308Z,78.30
2022-11-16T01:12:21.878Z,78.30
2022-11-16T01:14:51.806Z,78.20
2022-11-16T01:17:19.888Z,78.20
2022-11-16T01:19:48.044Z,78.20
2022-11-16T01:22:16.718Z,78.30
2022-11-16T01:24:46.893Z,78.30
2022-11-16T01:27:15.647Z,78.40
2022-11-16T01:29:43.761Z,77.70
2022-11-16T01:32:13.273Z,78.40
2022-11-16T01:34:41.842Z,78.30
2022-11-16T01:37:09.980Z,78.10
2022-11-16T01:39:38.819Z,78.20
2022-11-16T01:42:07.185Z,78.30
2022-11-16T01:45:08.123Z,78.30
2022-11-16T01:47:38.055Z,78.40
2022-11-16T01:50:11.648Z,78.30
2022-11-16T01:52:43.610Z,78.30
2022-11-16T01:55:12.462Z,78.30
2022-11-16T01:57:43.672Z,78.30
2022-11-16T02:00:14.875Z,78.40
2022-11-16T02:02:44.413Z,78.50
2022-11-16T02:05:14.175Z,78.50
2022-11-16T02:08:24.119Z,78.50
2022-11-16T02:11:19.139Z,78.80
2022-11-16T02:13:56.687Z,78.90
2022-11-16T02:16:31.788Z,78.80
2022-11-16T02:19:08.774Z,78.80
2022-11-16T02:21:42.161Z,79.00
2022-11-16T02:24:46.543Z,79.10
2022-11-16T02:27:57.812Z,79.20
2022-11-16T02:30:27.349Z,79.50
2022-11-16T02:33:01.638Z,79.20
2022-11-16T02:35:35.147Z,79.50
2022-11-16T02:38:07.592Z,79.60
2022-11-16T02:40:39.236Z,79.60
2022-11-16T02:43:09.900Z,79.70
2022-11-16T02:46:10.208Z,79.80
2022-11-16T02:48:42.113Z,80.10
2022-11-16T02:51:11.670Z,79.80
2022-11-16T02:53:44.150Z,79.90
2022-11-16T02:56:14.130Z,80.00
2022-11-16T02:58:42.264Z,80.00
2022-11-16T03:01:17.321Z,80.10
2022-11-16T03:03:53.152Z,80.30
2022-11-16T03:06:24.938Z,80.30
2022-11-16T03:08:57.225Z,80.30
2022-11-16T03:11:43.433Z,80.50
2022-11-16T03:14:16.581Z,80.50
2022-11-16T03:16:50.666Z,80.60
2022-11-16T03:19:23.623Z,80.60
2022-11-16T03:21:57.367Z,80.60
2022-11-16T03:24:25.986Z,80.70
2022-11-16T03:27:00.957Z,80.70
2022-11-16T03:29:33.605Z,80.80
2022-11-16T03:32:10.559Z,80.80
2022-11-16T03:34:40.630Z,80.90
2022-11-16T03:37:09.576Z,80.90
2022-11-16T03:39:41.386Z,80.80
2022-11-16T03:42:15.233Z,80.90
2022-11-16T03:44:46.359Z,80.90
2022-11-16T03:47:16.043Z,81.00
2022-11-16T03:49:46.902Z,81.10
2022-11-16T03:52:16.426Z,81.20
2022-11-16T03:54:45.140Z,81.20
2022-11-16T03:57:17.482Z,81.30
2022-11-16T03:59:45.968Z,81.40
2022-11-16T04:02:15.994Z,81.40
2022-11-16T04:05:01.724Z,81.50
2022-11-16T04:07:47.883Z,81.50
2022-11-16T04:10:33.713Z,81.60
2022-11-16T04:13:20.590Z,81.60
2022-11-16T04:16:05.895Z,81.70
2022-11-16T04:18:53.487Z,81.80
2022-11-16T04:21:43.344Z,81.80
2022-11-16T04:24:16.715Z,82.00
2022-11-16T04:27:05.334Z,82.00
2022-11-16T04:29:34.432Z,82.00
2022-11-16T04:32:20.928Z,82.00
2022-11-16T04:35:07.909Z,82.10
2022-11-16T04:37:52.948Z,82.10
2022-11-16T04:40:24.179Z,82.20
2022-11-16T04:42:53.484Z,82.20
2022-11-16T04:45:40.564Z,82.20
2022-11-16T04:48:09.215Z,82.30
2022-11-16T04:50:39.443Z,82.30
2022-11-16T04:53:09.004Z,82.30
2022-11-16T04:55:38.096Z,82.40
2022-11-16T04:58:06.415Z,82.40
2022-11-16T05:00:35.017Z,82.50
2022-11-16T05:03:05.668Z,82.50
2022-11-16T05:05:34.213Z,82.50
2022-11-16T05:08:03.701Z,82.50
2022-11-16T05:10:32.287Z,82.50
2022-11-16T05:13:00.368Z,82.40
2022-11-16T05:15:28.979Z,82.40
2022-11-16T05:17:58.229Z,82.20
2022-11-16T05:20:44.262Z,82.20
2022-11-16T05:23:30.927Z,82.30
2022-11-16T05:25:59.515Z,82.40
2022-11-16T05:28:28.085Z,82.40
2022-11-16T05:30:56.666Z,82.40
2022-11-16T05:33:24.736Z,82.50
2022-11-16T05:35:53.879Z,82.50
2022-11-16T05:38:23.390Z,82.50
2022-11-16T05:40:52.009Z,82.70
2022-11-16T05:43:20.117Z,82.70
2022-11-16T05:45:48.251Z,82.60
2022-11-16T05:48:16.796Z,82.70
2022-11-16T05:50:44.865Z,82.90
2022-11-16T05:53:13.585Z,82.80
2022-11-16T05:55:43.204Z,82.80
2022-11-16T05:58:11.459Z,82.80
2022-11-16T06:00:40.077Z,82.80
2022-11-16T06:03:08.165Z,82.70
2022-11-16T06:05:40.420Z,82.70
2022-11-16T06:08:08.857Z,82.70
2022-11-16T06:10:38.394Z,82.60
2022-11-16T06:13:07.870Z,82.70
2022-11-16T06:15:39.057Z,82.60
2022-11-16T06:18:08.132Z,82.50
2022-11-16T06:20:36.979Z,82.50
2022-11-16T06:23:05.090Z,82.60
2022-11-16T06:25:34.520Z,82.60
2022-11-16T06:28:07.669Z,82.60
2022-11-16T06:30:38.121Z,82.50
2022-11-16T06:33:06.817Z,82.70
2022-11-16T06:35:35.425Z,82.70
2022-11-16T06:38:03.553Z,82.70
2022-11-16T06:40:33.211Z,82.70
2022-11-16T06:43:01.437Z,82.80
2022-11-16T06:45:29.983Z,82.90
2022-11-16T06:47:59.489Z,82.90
2022-11-16T06:50:28.036Z,83.00
2022-11-16T06:52:56.116Z,83.10
2022-11-16T06:55:24.724Z,83.10
2022-11-16T06:57:52.769Z,83.30
2022-11-16T07:00:21.564Z,83.30
2022-11-16T07:02:50.221Z,83.40
2022-11-16T07:05:19.719Z,83.40
2022-11-16T07:07:48.395Z,83.40
2022-11-16T07:10:16.629Z,83.50
2022-11-16T07:12:44.861Z,83.30
2022-11-16T07:15:12.955Z,83.40
2022-11-16T07:17:41.391Z,83.30
2022-11-16T07:20:12.063Z,83.50
2022-11-16T07:22:42.241Z,83.60
2022-11-16T07:25:11.062Z,84.00
2022-11-16T07:27:39.231Z,83.80
2022-11-16T07:30:08.615Z,83.80
2022-11-16T07:32:39.823Z,84.00
2022-11-16T07:35:08.778Z,84.00
2022-11-16T07:37:37.401Z,84.00
2022-11-16T07:40:08.355Z,83.90
2022-11-16T07:42:36.773Z,84.10
2022-11-16T07:45:05.218Z,84.10
2022-11-16T07:47:37.719Z,84.20
2022-11-16T07:50:07.211Z,84.30
2022-11-16T07:52:35.785Z,84.40
2022-11-16T07:55:05.728Z,84.20
2022-11-16T07:57:35.221Z,84.30
2022-11-16T08:00:04.468Z,84.40
2022-11-16T08:02:32.617Z,84.40
2022-11-16T08:05:01.233Z,84.30
2022-11-16T08:07:30.005Z,84.30
2022-11-16T08:09:58.725Z,84.30
2022-11-16T08:12:26.857Z,84.40
2022-11-16T08:14:56.830Z,84.30
2022-11-16T08:17:25.043Z,84.40
2022-11-16T08:19:53.651Z,84.40
2022-11-16T08:22:22.362Z,84.40
2022-11-16T08:24:50.433Z,84.40
2022-11-16T08:27:19.008Z,84.40
2022-11-16T08:29:47.503Z,84.40
2022-11-16T08:32:17.472Z,84.40
2022-11-16T08:34:46.001Z,84.50
2022-11-16T08:37:14.597Z,84.50
2022-11-16T08:39:42.754Z,84.50
2022-11-16T08:42:11.159Z,84.60
2022-11-16T08:44:39.283Z,84.80
2022-11-16T08:47:07.411Z,84.80
2022-11-16T08:49:37.549Z,84.80
2022-11-16T08:52:05.980Z,84.80
2022-11-16T08:54:34.624Z,84.90
2022-11-16T08:57:02.747Z,84.80
2022-11-16T08:59:31.324Z,84.70
2022-11-16T09:01:59.527Z,84.60
2022-11-16T09:04:30.525Z,85.60
2022-11-16T09:07:03.751Z,84.80
2022-11-16T09:09:32.389Z,85.00
2022-11-16T09:12:00.522Z,84.90
2022-11-16T09:14:30.696Z,85.00
2022-11-16T09:16:58.839Z,85.10
2022-11-16T09:19:27.424Z,85.00
2022-11-16T09:21:55.553Z,85.10
2022-11-16T09:24:25.621Z,85.20
2022-11-16T09:26:54.320Z,85.30
2022-11-16T09:29:22.897Z,85.20
2022-11-16T09:31:51.516Z,85.30
2022-11-16T09:34:20.098Z,85.40
2022-11-16T09:36:48.748Z,85.40
2022-11-16T09:39:30.669Z,85.40
2022-11-16T09:42:22.046Z,85.50
2022-11-16T09:45:01.298Z,85.80
2022-11-16T09:47:41.505Z,85.80
2022-11-16T09:50:31.555Z,85.70
2022-11-16T09:53:07.620Z,85.70
2022-11-16T09:55:40.826Z,85.70
2022-11-16T09:58:21.549Z,86.10
2022-11-16T10:00:57.875Z,85.90
2022-11-16T10:03:27.394Z,86.00
2022-11-16T10:06:02.883Z,86.10
2022-11-16T10:08:43.576Z,86.50
2022-11-16T10:11:27.092Z,86.40
2022-11-16T10:14:04.715Z,86.60
2022-11-16T10:16:39.931Z,86.30
2022-11-16T10:19:16.372Z,86.00
2022-11-16T10:21:53.563Z,85.80
2022-11-16T10:24:43.559Z,85.80
2022-11-16T10:27:33.347Z,85.70
2022-11-16T10:30:11.015Z,85.60
2022-11-16T10:32:45.699Z,85.80
2022-11-16T10:35:18.326Z,86.10
2022-11-16T10:37:50.209Z,86.10
2022-11-16T10:40:22.239Z,85.90
2022-11-16T10:43:02.377Z,86.20
2022-11-16T10:45:39.001Z,86.20
2022-11-16T10:48:20.302Z,86.00
2022-11-16T10:50:55.863Z,85.90
2022-11-16T10:53:35.159Z,86.30
2022-11-16T10:56:18.988Z,86.60
2022-11-16T10:58:59.093Z,85.80
2022-11-16T11:01:39.588Z,86.20
2022-11-16T11:04:16.769Z,85.80
2022-11-16T11:06:45.792Z,85.50
2022-11-16T11:09:21.946Z,85.60
2022-11-16T11:12:21.442Z,85.90
2022-11-16T11:15:05.797Z,85.50
2022-11-16T11:17:36.404Z,85.10
2022-11-16T11:20:08.126Z,85.20
2022-11-16T11:22:44.116Z,85.50
2022-11-16T11:25:22.591Z,86.30
2022-11-16T11:27:52.333Z,85.20
2022-11-16T11:30:21.675Z,85.20
2022-11-16T11:32:53.440Z,85.20
2022-11-16T11:35:26.304Z,85.50
2022-11-16T11:37:58.071Z,85.60
2022-11-16T11:40:27.865Z,85.80
2022-11-16T11:42:59.473Z,85.50
2022-11-16T11:45:34.167Z,85.60
2022-11-16T11:48:08.119Z,85.40
2022-11-16T11:50:44.296Z,85.40
2022-11-16T11:53:24.297Z,85.20
2022-11-16T11:55:58.330Z,85.50
2022-11-16T11:58:31.775Z,85.20
2022-11-16T12:01:27.584Z,85.10
2022-11-16T12:04:25.878Z,85.30
2022-11-16T12:07:05.215Z,85.60
2022-11-16T12:09:42.176Z,85.40
2022-11-16T12:12:26.088Z,85.30
2022-11-16T12:15:17.343Z,85.00
2022-11-16T12:17:53.987Z,84.80
2022-11-16T12:20:39.577Z,84.50
2022-11-16T12:23:34.283Z,84.20
2022-11-16T12:26:09.302Z,84.10
2022-11-16T12:28:57.108Z,84.00
2022-11-16T12:31:49.297Z,83.70
2022-11-16T12:34:28.420Z,83.80
2022-11-16T12:37:04.994Z,83.80
2022-11-16T12:39:36.551Z,83.80
2022-11-16T12:42:22.168Z,84.10
2022-11-16T12:45:15.672Z,84.00
2022-11-16T12:47:56.737Z,82.90
2022-11-16T12:50:45.751Z,83.40
2022-11-16T12:53:32.306Z,83.10
2022-11-16T12:56:11.597Z,82.30
2022-11-16T12:58:57.258Z,82.20
2022-11-16T13:01:32.937Z,81.50
2022-11-16T13:04:07.059Z,80.90
2022-11-16T13:06:39.956Z,79.80
2022-11-16T13:09:12.423Z,79.30
2022-11-16T13:11:45.791Z,78.70
2022-11-16T13:14:19.095Z,78.60
2022-11-16T13:16:48.938Z,78.30
2022-11-16T13:19:19.303Z,77.80
2022-11-16T13:21:57.593Z,77.10
2022-11-16T13:24:40.146Z,76.10
2022-11-16T13:27:29.739Z,75.40
2022-11-16T13:30:05.583Z,74.50
2022-11-16T13:32:51.747Z,74.30
2022-11-16T13:35:21.453Z,74.10
2022-11-16T13:37:52.140Z,75.00
2022-11-16T13:40:30.213Z,75.00
2022-11-16T13:43:15.884Z,74.80
2022-11-16T13:45:52.693Z,73.90
2022-11-16T13:48:24.582Z,73.90
2022-11-16T13:50:55.274Z,73.40
2022-11-16T13:54:25.001Z,72.80
2022-11-16T13:56:24.109Z,72.00
2022-11-16T13:58:58.303Z,71.90
2022-11-16T14:01:27.425Z,71.30
2022-11-16T14:04:36.084Z,71.70
2022-11-16T14:07:04.730Z,71.20
2022-11-16T14:09:47.087Z,72.70
2022-11-16T14:12:57.752Z,70.40
2022-11-16T14:15:33.796Z,70.00
2022-11-16T14:18:38.134Z,71.00
2022-11-16T14:21:22.333Z,69.00
2022-11-16T14:24:05.138Z,69.40
2022-11-16T14:26:46.467Z,69.10
2022-11-16T14:29:34.418Z,68.80
2022-11-16T14:32:07.249Z,68.40
2022-11-16T14:34:46.231Z,68.90
2022-11-16T14:37:28.483Z,69.30
2022-11-16T14:40:03.271Z,69.30
2022-11-16T14:42:54.333Z,69.60
2022-11-16T14:45:28.581Z,70.00
2022-11-16T14:48:02.648Z,69.90
2022-11-16T14:50:36.657Z,70.30
2022-11-16T14:53:10.889Z,70.50
2022-11-16T14:55:43.905Z,70.70
2022-11-16T14:58:19.752Z,70.90
2022-11-16T15:00:54.816Z,70.90
2022-11-16T15:03:27.120Z,70.90
2022-11-16T15:05:59.578Z,71.10
2022-11-16T15:08:33.467Z,71.20
2022-11-16T15:11:02.169Z,71.50
2022-11-16T15:13:30.884Z,71.60
2022-11-16T15:16:15.906Z,71.90
2022-11-16T15:18:58.208Z,72.10
2022-11-16T15:21:27.546Z,72.40
2022-11-16T15:26:45.094Z,72.70
2022-11-16T15:29:17.811Z,73.00
2022-11-16T15:31:47.072Z,73.10
2022-11-16T15:34:18.530Z,73.40
2022-11-16T15:36:48.007Z,73.60
2022-11-16T15:39:19.593Z,73.90
2022-11-16T15:41:48.735Z,74.10
2022-11-16T15:44:20.897Z,74.10
2022-11-16T15:46:51.825Z,74.30
2022-11-16T15:49:29.703Z,74.30
2022-11-16T15:51:59.018Z,74.40
2022-11-16T15:54:29.495Z,74.40
2022-11-16T15:57:05.342Z,74.50
2022-11-16T15:59:38.630Z,74.70
2022-11-16T16:02:07.413Z,74.80
2022-11-16T16:04:43.915Z,74.70
2022-11-16T16:07:12.869Z,74.90
2022-11-16T16:09:43.023Z,74.80
2022-11-16T16:12:19.301Z,74.80
2022-11-16T16:14:49.700Z,75.10
2022-11-16T16:17:25.390Z,75.20
2022-11-16T16:19:59.872Z,75.40
2022-11-16T16:22:31.717Z,75.60
2022-11-16T16:25:01.513Z,75.70
2022-11-16T16:27:31.287Z,75.60
2022-11-16T16:30:03.858Z,75.80
2022-11-16T16:32:34.107Z,76.00
2022-11-16T16:35:05.303Z,76.20
2022-11-16T16:37:35.833Z,76.30
2022-11-16T16:40:04.892Z,76.50
2022-11-16T16:42:33.034Z,76.50
2022-11-16T16:45:02.281Z,76.50
2022-11-16T16:47:30.865Z,76.60
2022-11-16T16:49:59.453Z,76.50
2022-11-16T16:52:29.013Z,76.40
2022-11-16T16:54:57.155Z,76.30
2022-11-16T16:57:25.266Z,76.10
2022-11-16T16:59:58.990Z,76.30
2022-11-16T17:02:29.161Z,76.70
2022-11-16T17:04:57.284Z,77.10
2022-11-16T17:07:25.433Z,77.20
2022-11-16T17:09:55.257Z,77.40
2022-11-16T17:12:23.808Z,77.40
2022-11-16T17:14:52.409Z,77.60
2022-11-16T17:17:21.044Z,77.60
2022-11-16T17:19:49.298Z,77.60
2022-11-16T17:22:17.854Z,77.70
2022-11-16T17:24:46.480Z,77.80
2022-11-16T17:27:16.011Z,77.80
2022-11-16T17:29:44.555Z,77.80
2022-11-16T17:32:12.661Z,77.60
2022-11-16T17:34:41.978Z,77.50
2022-11-16T17:37:10.672Z,77.60
2022-11-16T17:39:39.170Z,77.50
2022-11-16T17:42:07.824Z,77.70
2022-11-16T17:44:37.374Z,78.00
2022-11-16T17:47:06.647Z,78.10
2022-11-16T17:49:34.799Z,78.00
2022-11-16T17:52:04.939Z,78.10
2022-11-16T17:54:33.018Z,78.40
2022-11-16T17:57:01.151Z,78.40
2022-11-16T17:59:30.123Z,78.60
2022-11-16T18:01:59.830Z,78.70
2022-11-16T18:04:28.019Z,78.90
2022-11-16T18:06:56.425Z,79.00
2022-11-16T18:09:24.715Z,79.00
2022-11-16T18:11:52.890Z,79.10
2022-11-16T18:14:22.173Z,79.10
2022-11-16T18:16:50.421Z,79.10
2022-11-16T18:19:21.015Z,79.00
2022-11-16T18:22:00.155Z,79.00
2022-11-16T18:24:28.251Z,79.10
2022-11-16T18:26:57.425Z,79.00
2022-11-16T18:29:25.633Z,79.00
2022-11-16T18:31:57.732Z,78.90
2022-11-16T18:34:27.249Z,78.90
2022-11-16T18:36:56.239Z,78.70
2022-11-16T18:39:24.297Z,78.80
2022-11-16T18:41:54.975Z,78.70
2022-11-16T18:44:23.630Z,78.70
2022-11-16T18:46:51.718Z,78.70
2022-11-16T18:49:19.903Z,78.70
2022-11-16T18:51:52.569Z,78.60
2022-11-16T18:54:20.775Z,78.40
2022-11-16T18:56:49.028Z,78.50
2022-11-16T18:59:17.169Z,78.60
2022-11-16T19:01:45.350Z,78.60
2022-11-16T19:04:13.586Z,78.70
2022-11-16T19:06:41.866Z,78.60
2022-11-16T19:09:11.469Z,78.70
2022-11-16T19:11:39.791Z,78.70
2022-11-16T19:14:08.516Z,78.90
2022-11-16T19:16:37.162Z,78.80
2022-11-16T19:19:05.667Z,78.90
2022-11-16T19:21:33.913Z,79.00
2022-11-16T19:24:02.065Z,79.00
2022-11-16T19:26:31.568Z,78.90
2022-11-16T19:29:01.624Z,78.90
2022-11-16T19:31:30.905Z,78.70
2022-11-16T19:34:00.755Z,78.80
2022-11-16T19:36:30.742Z,78.80
2022-11-16T19:38:59.492Z,78.70
2022-11-16T19:41:28.509Z,78.70
2022-11-16T19:44:00.298Z,78.80
2022-11-16T19:46:29.562Z,78.90
2022-11-16T19:48:57.992Z,78.90
2022-11-16T19:51:27.544Z,79.10
2022-11-16T19:53:55.982Z,79.30
2022-11-16T19:56:25.046Z,79.30
2022-11-16T19:58:53.136Z,79.30
2022-11-16T20:01:25.444Z,79.30
2022-11-16T20:03:53.687Z,79.30
2022-11-16T20:06:23.946Z,79.10
2022-11-16T20:08:53.944Z,79.30
2022-11-16T20:11:23.867Z,79.30
2022-11-16T20:13:53.703Z,79.20
2022-11-16T20:16:25.098Z,79.40
2022-11-16T20:18:54.047Z,79.40
2022-11-16T20:21:24.358Z,79.40
2022-11-16T20:23:53.322Z,79.50
2022-11-16T20:26:22.551Z,79.60
2022-11-16T20:28:52.555Z,79.60
2022-11-16T20:31:24.087Z,79.70
2022-11-16T20:33:53.356Z,79.70
2022-11-16T20:36:22.890Z,79.80
2022-11-16T20:38:51.534Z,79.80
2022-11-16T20:41:22.166Z,79.90
2022-11-16T20:43:52.534Z,80.00
2022-11-16T20:46:24.200Z,80.20
2022-11-16T20:48:52.438Z,80.30
2022-11-16T20:51:21.890Z,80.40
2022-11-16T20:53:51.045Z,80.60
2022-11-16T20:56:20.449Z,80.70
2022-11-16T20:58:50.472Z,81.70
2022-11-16T21:01:20.978Z,80.90
2022-11-16T21:03:50.643Z,80.90
2022-11-16T21:06:18.816Z,80.90
2022-11-16T21:08:47.025Z,81.10
2022-11-16T21:11:17.121Z,81.00
2022-11-16T21:14:04.020Z,81.00
2022-11-16T21:16:32.628Z,81.00
2022-11-16T21:19:04.550Z,80.90
2022-11-16T21:21:33.163Z,80.90
2022-11-16T21:24:01.354Z,81.00
2022-11-16T21:26:31.205Z,81.10
2022-11-16T21:29:00.208Z,81.40
2022-11-16T21:31:29.887Z,81.50
2022-11-16T21:33:58.354Z,81.70
2022-11-16T21:36:29.665Z,81.80
2022-11-16T21:38:58.538Z,81.90
2022-11-16T21:41:27.362Z,82.70
2022-11-16T21:43:55.722Z,81.80
2022-11-16T21:46:26.178Z,81.70
2022-11-16T21:48:57.205Z,81.70
2022-11-16T21:51:28.517Z,81.70
2022-11-16T21:53:56.814Z,81.60
2022-11-16T21:56:26.764Z,81.50
2022-11-16T21:58:55.618Z,81.40
2022-11-16T22:01:24.780Z,81.30
2022-11-16T22:04:06.866Z,81.20
2022-11-16T22:06:54.191Z,81.10
2022-11-16T22:09:22.598Z,81.20
2022-11-16T22:11:50.799Z,81.10
2022-11-16T22:14:18.987Z,81.10
2022-11-16T22:16:47.188Z,81.20
2022-11-16T22:19:15.369Z,81.30
2022-11-16T22:21:44.857Z,81.10
2022-11-16T22:24:12.936Z,81.20
2022-11-16T22:26:41.250Z,81.20
2022-11-16T22:29:09.317Z,81.20
2022-11-16T22:31:37.399Z,81.30
2022-11-16T22:34:05.631Z,81.30
2022-11-16T22:36:33.771Z,81.30
2022-11-16T22:39:03.520Z,81.20
2022-11-16T22:41:31.651Z,81.30
2022-11-16T22:43:59.789Z,81.30
2022-11-16T22:46:27.926Z,81.40
2022-11-16T22:48:56.127Z,81.40
2022-11-16T22:51:25.545Z,81.40
2022-11-16T22:53:54.936Z,81.50
2022-11-16T22:56:24.990Z,81.50
2022-11-16T22:58:53.441Z,81.50
2022-11-16T23:01:22.236Z,81.60
2022-11-16T23:03:50.949Z,81.60
2022-11-16T23:06:19.407Z,81.60
2022-11-16T23:08:47.585Z,81.60
2022-11-16T23:11:34.657Z,81.60
2022-11-16T23:14:22.812Z,81.60
2022-11-16T23:16:50.919Z,81.50
2022-11-16T23:19:38.111Z,81.40
2022-11-16T23:22:24.598Z,81.60
2022-11-16T23:25:10.290Z,81.60
2022-11-16T23:27:42.618Z,82.60
2022-11-16T23:30:13.701Z,81.80
2022-11-16T23:32:42.347Z,82.00
2022-11-16T23:35:11.088Z,82.20
2022-11-16T23:37:51.801Z,82.70
2022-11-16T23:40:20.450Z,83.00
2022-11-16T23:43:06.339Z,83.00
2022-11-16T23:45:35.839Z,83.10
2022-11-16T23:48:03.939Z,83.10
2022-11-16T23:50:32.071Z,83.20
2022-11-16T23:53:00.173Z,83.30
2022-11-16T23:55:28.590Z,83.30
2022-11-16T23:57:56.752Z,83.50
